Time;durP1;ratioP1;P1;durP2;ratioP2;P2;SDS_P1;SDS_P2;PMS_P1;PMS_P2;Temp;Humidity;BMP_temperature;BMP_pressure;BME280_temperature;BME280_humidity;BME280_pressure;Samples;Min_cycle;Max_cycle;Signal;HPM_P1;HPM_P2
2022/05/15 00:01:18;;;;;;;3.17;2.75;;;;;;;20.01;48.46;93695.91;5000679;28;20404;-84
2022/05/15 00:03:43;;;;;;;4.07;2.35;;;;;;;20.03;48.70;93687.16;4995807;28;20039;-85
2022/05/15 00:06:09;;;;;;;2.70;2.40;;;;;;;20.00;48.65;93691.66;4995742;28;20040;-84
2022/05/15 00:08:35;;;;;;;2.50;2.30;;;;;;;20.00;48.39;93691.66;4979016;28;20038;-85
2022/05/15 00:11:01;;;;;;;2.45;2.08;;;;;;;20.01;48.24;93695.16;4981265;28;20037;-84
2022/05/15 00:13:27;;;;;;;3.42;2.25;;;;;;;20.02;48.29;93694.63;5001728;28;20041;-84
2022/05/15 00:15:52;;;;;;;2.78;2.00;;;;;;;20.01;48.55;93692.41;4995667;28;20534;-84
2022/05/15 00:18:18;;;;;;;2.17;2.00;;;;;;;19.99;48.45;93690.19;4994906;28;20092;-84
2022/05/15 00:20:44;;;;;;;3.58;2.00;;;;;;;19.99;48.47;93683.94;4979587;28;20484;-85
2022/05/15 00:23:10;;;;;;;3.13;2.35;;;;;;;19.99;48.76;93695.66;4995356;28;20030;-84
2022/05/15 00:25:36;;;;;;;2.95;1.98;;;;;;;19.98;48.47;93683.19;4979246;28;20037;-85
2022/05/15 00:28:01;;;;;;;3.38;2.47;;;;;;;19.98;48.66;93691.44;5011686;28;20504;-84
2022/05/15 00:30:27;;;;;;;2.63;2.22;;;;;;;20.00;48.53;93696.41;4978782;28;20037;-84
2022/05/15 00:32:52;;;;;;;2.17;2.00;;;;;;;20.00;48.50;93701.91;4995228;28;20037;-83
2022/05/15 00:35:18;;;;;;;2.80;2.42;;;;;;;19.97;48.37;93700.19;5010841;28;20137;-84
2022/05/15 00:37:43;;;;;;;2.97;1.92;;;;;;;19.98;48.56;93693.44;4994626;28;20445;-85
2022/05/15 00:40:09;;;;;;;2.70;2.20;;;;;;;19.99;48.26;93689.44;4994761;28;20523;-84
2022/05/15 00:42:35;;;;;;;3.17;2.40;;;;;;;19.96;48.40;93698.69;4991700;28;20148;-84
2022/05/15 00:45:01;;;;;;;2.25;2.05;;;;;;;19.97;48.65;93686.47;5015236;28;20040;-84
2022/05/15 00:47:27;;;;;;;2.88;2.10;;;;;;;19.94;48.26;93682.75;4999241;28;20515;-84
2022/05/15 00:49:52;;;;;;;2.17;1.90;;;;;;;19.96;48.52;93684.97;5028617;28;20050;-84
2022/05/15 00:52:20;;;;;;;2.75;2.25;;;;;;;19.98;48.15;93690.69;4978318;28;20095;-86
2022/05/15 00:54:46;;;;;;;2.80;2.55;;;;;;;19.97;47.92;93694.69;4979028;28;20124;-84
2022/05/15 00:57:26;;;;;;;3.00;2.20;;;;;;;19.96;48.08;93691.19;5010491;28;20408;-84
2022/05/15 01:00:03;;;;;;;2.83;2.55;;;;;;;19.96;48.26;93693.19;4994781;28;20447;-85
2022/05/15 01:02:37;;;;;;;3.58;2.17;;;;;;;19.97;48.17;93694.69;5009524;28;20045;-84
2022/05/15 01:05:03;;;;;;;2.65;2.13;;;;;;;19.96;48.16;93691.19;4978875;28;20034;-84
2022/05/15 01:07:29;;;;;;;3.38;2.35;;;;;;;19.97;48.25;93694.69;4994344;28;20048;-83
2022/05/15 01:09:54;;;;;;;2.60;2.00;;;;;;;19.96;48.40;93682.97;4977651;28;20431;-84
2022/05/15 01:12:20;;;;;;;2.65;2.22;;;;;;;19.94;48.22;93690.22;5005959;28;20059;-84
2022/05/15 01:14:46;;;;;;;2.63;2.08;;;;;;;19.93;47.88;93681.25;5010585;28;20042;-85
2022/05/15 01:17:11;;;;;;;2.92;2.20;;;;;;;19.93;48.18;93692.22;4986068;28;20106;-84
2022/05/15 01:19:39;;;;;;;2.63;2.42;;;;;;;19.92;48.22;93693.47;5013690;28;20052;-86
2022/05/15 01:22:05;;;;;;;2.78;1.73;;;;;;;19.93;48.26;93683.25;5002903;28;20038;-84
2022/05/15 01:24:30;;;;;;;2.50;2.30;;;;;;;19.92;48.02;93688.00;4977501;28;20042;-84
2022/05/15 01:26:56;;;;;;;3.70;2.05;;;;;;;19.93;47.89;93696.97;4977951;28;20041;-84
2022/05/15 01:29:29;;;;;;;2.58;2.38;;;;;;;19.92;48.27;93695.50;5009887;28;20132;-84
2022/05/15 01:31:55;;;;;;;2.63;2.15;;;;;;;19.92;48.23;93687.28;5010119;28;20404;-84
2022/05/15 01:34:20;;;;;;;2.20;2.00;;;;;;;19.92;48.06;93690.03;4993648;28;20053;-84
2022/05/15 01:36:46;;;;;;;2.40;1.85;;;;;;;19.90;48.05;93685.03;4993929;28;20045;-84
2022/05/15 01:39:11;;;;;;;2.40;2.20;;;;;;;19.92;48.08;93690.72;4969577;28;20033;-84
2022/05/15 01:41:36;;;;;;;2.63;2.10;;;;;;;19.92;48.08;93693.47;4998399;28;20056;-84
2022/05/15 01:44:02;;;;;;;2.17;1.80;;;;;;;19.90;48.33;93687.03;5012953;28;20041;-86
2022/05/15 01:46:28;;;;;;;2.47;1.90;;;;;;;19.90;48.20;93687.78;5025515;28;20038;-84
2022/05/15 01:48:54;;;;;;;1.92;1.77;;;;;;;19.89;48.28;93685.56;4976803;28;20560;-84
2022/05/15 01:51:20;;;;;;;2.13;1.92;;;;;;;19.92;48.01;93693.47;4976964;28;20140;-84
2022/05/15 01:53:45;;;;;;;1.95;1.70;;;;;;;19.89;48.18;93686.31;4994115;28;20041;-84
2022/05/15 01:56:11;;;;;;;2.38;1.98;;;;;;;19.89;48.14;93691.78;4992915;28;20047;-84
2022/05/15 01:58:36;;;;;;;2.20;2.00;;;;;;;19.88;48.30;93676.59;4993440;28;20547;-84
2022/05/15 02:01:02;;;;;;;2.08;1.80;;;;;;;19.90;48.15;93687.03;4992476;28;20045;-84
2022/05/15 02:03:27;;;;;;;3.08;2.67;;;;;;;19.88;47.99;93684.06;4976802;28;20054;-84
2022/05/15 02:05:53;;;;;;;2.10;1.90;;;;;;;19.87;48.15;93683.31;4977671;28;20044;-84
2022/05/15 02:08:18;;;;;;;2.67;1.67;;;;;;;19.88;48.13;93673.84;4992038;28;20459;-84
2022/05/15 02:10:44;;;;;;;2.47;1.92;;;;;;;19.87;48.37;93688.81;4992966;28;20037;-84
2022/05/15 02:13:10;;;;;;;3.53;2.00;;;;;;;19.88;48.13;93687.56;4988359;28;20552;-84
2022/05/15 02:15:35;;;;;;;2.42;2.13;;;;;;;19.89;48.05;93686.31;4990272;28;20045;-84
2022/05/15 02:18:02;;;;;;;1.98;1.63;;;;;;;19.87;48.28;93691.56;4973573;28;20046;-84
2022/05/15 02:20:27;;;;;;;2.17;1.98;;;;;;;19.88;47.99;93684.81;5005784;28;20046;-84
2022/05/15 02:22:53;;;;;;;2.50;2.10;;;;;;;19.87;48.29;93688.06;4993085;28;20038;-86
2022/05/15 02:25:18;;;;;;;2.63;2.13;;;;;;;19.87;48.18;93675.09;4992226;28;20444;-84
2022/05/15 02:27:44;;;;;;;2.40;2.10;;;;;;;19.83;48.07;93683.59;4993195;28;20046;-84
2022/05/15 02:30:10;;;;;;;3.05;2.20;;;;;;;19.84;48.18;93678.88;5009215;28;20613;-84
2022/05/15 02:32:35;;;;;;;1.63;1.50;;;;;;;19.86;48.25;93684.56;4992467;28;20049;-85
2022/05/15 02:35:02;;;;;;;2.45;2.10;;;;;;;19.83;48.11;93680.13;4977029;28;20389;-85
2022/05/15 02:37:27;;;;;;;2.35;2.10;;;;;;;19.84;48.06;93678.88;4992363;28;20052;-84
2022/05/15 02:39:53;;;;;;;2.13;1.92;;;;;;;19.83;48.08;93680.88;4976616;28;20060;-84
2022/05/15 02:42:21;;;;;;;2.13;1.73;;;;;;;19.84;48.17;93676.13;5002157;28;20086;-84
2022/05/15 02:44:46;;;;;;;3.17;2.13;;;;;;;19.84;48.07;93673.38;5013399;28;20039;-85
2022/05/15 02:47:12;;;;;;;2.10;1.80;;;;;;;19.83;47.88;93683.59;5004576;28;20128;-84
2022/05/15 02:52:23;;;;;;;2.33;1.80;;;;;;;19.81;48.20;93688.84;4930838;29;20637;-84
2022/05/15 02:54:48;;;;;;;2.13;1.73;;;;;;;19.83;47.76;93674.63;4946530;28;20054;-84
2022/05/15 02:57:14;;;;;;;2.10;1.90;;;;;;;19.83;48.08;93689.09;4945377;28;20040;-84
2022/05/15 02:59:39;;;;;;;2.72;2.42;;;;;;;19.80;48.00;93687.38;4929973;29;20047;-85
2022/05/15 03:02:05;;;;;;;2.67;1.80;;;;;;;19.80;47.98;93690.13;4944147;28;20443;-84
2022/05/15 03:04:32;;;;;;;2.05;1.67;;;;;;;19.82;47.87;93690.34;4946410;28;20074;-84
2022/05/15 03:06:57;;;;;;;2.20;2.00;;;;;;;19.79;48.21;93685.88;4946334;28;20078;-84
2022/05/15 03:09:23;;;;;;;2.00;1.80;;;;;;;19.82;47.76;93689.59;4928844;28;20047;-84
2022/05/15 03:11:48;;;;;;;2.00;1.80;;;;;;;19.82;47.77;93698.56;4940945;28;20086;-84
2022/05/15 03:14:14;;;;;;;3.17;2.20;;;;;;;19.81;47.76;93690.84;4919918;29;20594;-84
2022/05/15 03:16:39;;;;;;;2.25;2.05;;;;;;;19.82;47.58;93701.31;4895365;29;20040;-84
2022/05/15 03:19:05;;;;;;;2.17;1.98;;;;;;;19.80;47.82;93701.09;4910556;29;20158;-86
2022/05/15 03:21:30;;;;;;;2.75;1.85;;;;;;;19.81;47.79;93697.09;4924422;29;20427;-84
2022/05/15 03:24:03;;;;;;;2.05;1.85;;;;;;;19.79;47.51;93693.38;4934022;29;20043;-84
2022/05/15 03:26:29;;;;;;;3.08;2.30;;;;;;;19.78;47.70;93686.41;4941302;29;20054;-84
2022/05/15 03:28:54;;;;;;;2.28;1.77;;;;;;;19.79;47.70;93696.84;4947431;28;20042;-84
2022/05/15 03:31:20;;;;;;;2.28;1.73;;;;;;;19.79;48.21;93699.59;4966115;28;20472;-84
2022/05/15 03:33:46;;;;;;;2.15;1.90;;;;;;;19.77;47.85;93698.63;4975443;28;20528;-84
2022/05/15 03:36:12;;;;;;;2.13;1.92;;;;;;;19.80;47.85;93701.09;4993185;28;20460;-84
2022/05/15 03:38:39;;;;;;;2.35;1.65;;;;;;;19.80;48.13;93695.59;4987863;28;20053;-84
2022/05/15 03:41:05;;;;;;;2.00;1.73;;;;;;;19.79;47.94;93698.84;4992657;28;20120;-84
2022/05/15 03:43:30;;;;;;;2.30;1.92;;;;;;;19.76;47.70;93703.38;4999497;28;20676;-84
2022/05/15 03:45:56;;;;;;;2.20;2.00;;;;;;;19.77;47.57;93698.63;4999817;28;20087;-84
2022/05/15 03:48:21;;;;;;;2.67;1.60;;;;;;;19.78;47.85;93708.34;4980128;28;20042;-84
2022/05/15 03:50:47;;;;;;;2.50;2.00;;;;;;;19.80;48.09;93703.84;4995296;28;20041;-84
2022/05/15 03:53:12;;;;;;;2.20;2.00;;;;;;;19.80;47.77;93708.56;4994727;28;20034;-85
2022/05/15 03:55:38;;;;;;;2.08;1.88;;;;;;;20.00;47.59;93710.13;4995437;28;20080;-84
2022/05/15 03:58:03;;;;;;;2.00;1.67;;;;;;;20.09;47.20;93715.28;4969683;28;20049;-84
2022/05/15 04:00:29;;;;;;;2.25;1.80;;;;;;;20.05;47.28;93707.34;4979663;28;20065;-84
2022/05/15 04:02:55;;;;;;;2.10;1.90;;;;;;;20.02;47.23;93710.38;4987809;28;20068;-85
2022/05/15 04:05:20;;;;;;;5.15;2.10;;;;;;;20.03;47.01;93717.34;5011956;28;20041;-84
2022/05/15 04:07:47;;;;;;;1.67;1.52;;;;;;;20.03;47.05;93709.84;4979499;28;20044;-85
2022/05/15 04:10:13;;;;;;;2.30;2.10;;;;;;;20.07;46.98;93718.53;4995093;28;20038;-83
2022/05/15 04:12:38;;;;;;;2.40;2.20;;;;;;;20.06;46.76;93713.56;4984071;28;20127;-85
2022/05/15 04:15:04;;;;;;;2.72;2.00;;;;;;;20.06;46.79;93711.56;4995101;28;20459;-84
2022/05/15 04:17:30;;;;;;;2.42;2.20;;;;;;;20.09;46.91;93710.53;4979534;28;20045;-84
2022/05/15 04:19:55;;;;;;;2.20;1.70;;;;;;;20.10;46.65;93714.03;5012304;28;20033;-85
2022/05/15 04:22:21;;;;;;;2.63;2.00;;;;;;;20.10;46.54;93714.78;4974769;28;20087;-84
2022/05/15 04:24:46;;;;;;;2.42;1.88;;;;;;;20.09;46.71;93710.53;5008532;28;20046;-84
2022/05/15 04:27:11;;;;;;;2.45;2.00;;;;;;;20.08;46.74;93714.53;5011107;28;20404;-83
2022/05/15 04:29:37;;;;;;;1.95;1.75;;;;;;;20.08;46.69;93711.06;4995984;28;20042;-87
2022/05/15 04:32:03;;;;;;;3.05;2.20;;;;;;;20.08;46.70;93716.53;4993656;28;20038;-87
2022/05/15 04:34:28;;;;;;;2.17;1.98;;;;;;;20.06;46.76;93711.56;4995258;28;20075;-85
2022/05/15 04:36:54;;;;;;;3.58;1.95;;;;;;;20.07;47.04;93712.31;4995784;28;20512;-84
2022/05/15 04:39:19;;;;;;;2.22;1.95;;;;;;;20.09;46.69;93707.06;4977864;28;20033;-84
2022/05/15 04:41:45;;;;;;;2.70;2.38;;;;;;;20.07;46.63;93715.81;4984871;28;20048;-84
2022/05/15 04:44:11;;;;;;;3.22;2.22;;;;;;;20.08;46.64;93716.53;5030492;28;20071;-85
2022/05/15 04:46:36;;;;;;;2.22;2.03;;;;;;;20.05;46.81;93720.31;5015009;28;20045;-84
2022/05/15 04:49:01;;;;;;;2.60;2.38;;;;;;;20.06;46.77;93716.31;4996388;28;20041;-84
2022/05/15 04:51:27;;;;;;;2.30;2.10;;;;;;;20.05;46.81;93718.31;5009811;28;20041;-84
2022/05/15 04:53:53;;;;;;;2.33;2.13;;;;;;;20.06;47.10;93724.53;4978160;28;20559;-85
2022/05/15 04:56:18;;;;;;;2.00;1.80;;;;;;;20.06;46.91;93728.03;4994197;28;20057;-84
2022/05/15 04:58:44;;;;;;;2.20;2.00;;;;;;;20.08;46.88;93722.03;4978742;28;20396;-84
2022/05/15 05:01:09;;;;;;;2.13;1.92;;;;;;;20.08;47.07;93727.53;5010776;28;20427;-84
2022/05/15 05:03:34;;;;;;;2.40;2.20;;;;;;;20.07;47.07;93726.78;4994133;28;20034;-85
2022/05/15 05:06:00;;;;;;;2.80;1.60;;;;;;;20.06;46.92;93722.53;4994334;28;20400;-84
2022/05/15 05:08:25;;;;;;;2.92;2.05;;;;;;;20.07;47.03;93726.78;4977825;28;20334;-84
2022/05/15 05:10:51;;;;;;;3.50;2.03;;;;;;;20.07;47.09;93728.78;4977943;28;20040;-84
2022/05/15 05:13:16;;;;;;;2.03;1.83;;;;;;;20.10;46.89;93723.00;5009290;28;20598;-85
2022/05/15 05:15:42;;;;;;;1.98;1.63;;;;;;;20.11;47.02;93732.00;4993825;28;20520;-84
2022/05/15 05:18:07;;;;;;;2.25;1.95;;;;;;;20.13;46.97;93726.72;5010395;28;20045;-84
2022/05/15 05:20:33;;;;;;;2.55;1.95;;;;;;;20.14;46.94;93728.19;5010372;28;20449;-85
2022/05/15 05:22:58;;;;;;;1.83;1.70;;;;;;;20.13;46.91;93730.22;5010424;28;20530;-84
2022/05/15 05:25:23;;;;;;;2.20;2.00;;;;;;;20.15;47.08;93735.91;5008746;28;20057;-84
2022/05/15 05:27:49;;;;;;;2.28;1.98;;;;;;;20.15;47.08;93735.16;4993880;28;20038;-85
2022/05/15 05:30:18;;;;;;;1.88;1.67;;;;;;;20.17;46.97;93733.41;4993817;28;20038;-83
2022/05/15 05:32:43;;;;;;;1.60;1.50;;;;;;;20.18;46.78;93742.38;4977824;28;20106;-84
2022/05/15 05:35:09;;;;;;;1.50;1.40;;;;;;;20.19;46.95;93739.13;5009533;28;20508;-84
2022/05/15 05:37:34;;;;;;;1.80;1.65;;;;;;;20.19;47.03;93738.38;4994589;28;20527;-85
2022/05/15 05:40:00;;;;;;;1.90;1.70;;;;;;;20.22;47.00;93731.88;4973357;28;20119;-84
2022/05/15 05:42:25;;;;;;;2.10;1.85;;;;;;;20.22;47.07;93742.84;4996419;28;20415;-85
2022/05/15 05:44:51;;;;;;;2.63;1.88;;;;;;;20.25;47.08;93744.56;5010083;28;20483;-84
2022/05/15 05:47:25;;;;;;;1.55;1.45;;;;;;;20.24;46.93;93743.06;4993322;28;20381;-83
2022/05/15 05:49:51;;;;;;;1.92;1.75;;;;;;;20.27;46.79;93744.06;4976897;28;20037;-84
2022/05/15 05:52:16;;;;;;;1.77;1.67;;;;;;;20.25;46.79;93744.56;4992265;28;20045;-84
2022/05/15 05:54:42;;;;;;;2.33;1.88;;;;;;;20.29;46.63;93749.78;5027646;28;20496;-83
2022/05/15 05:57:07;;;;;;;1.60;1.50;;;;;;;20.31;46.74;93745.25;4993307;28;20045;-84
2022/05/15 05:59:33;;;;;;;2.28;1.27;;;;;;;20.31;46.53;93753.50;4990313;28;20524;-84
2022/05/15 06:01:58;;;;;;;2.60;1.73;;;;;;;20.30;46.78;93751.25;4973388;28;20119;-84
2022/05/15 06:04:39;;;;;;;2.00;1.80;;;;;;;20.30;47.07;93754.75;4973273;28;20045;-84
2022/05/15 06:07:04;;;;;;;;;;;;;;;20.32;47.06;93754.97;5006233;28;20177;-85
2022/05/15 06:09:29;;;;;;;3.60;1.80;;;;;;;20.33;46.94;93755.72;5007036;28;19921;-84
2022/05/15 06:11:55;;;;;;;2.25;1.88;;;;;;;20.36;46.53;93754.66;5015692;28;20282;-84
2022/05/15 06:14:20;;;;;;;2.08;1.60;;;;;;;20.34;47.06;93757.22;5021616;28;20045;-84
2022/05/15 06:16:46;;;;;;;2.08;1.60;;;;;;;20.34;46.86;93754.47;5006590;28;20046;-85
2022/05/15 06:19:11;;;;;;;1.65;1.40;;;;;;;20.34;47.04;93746.22;4989514;28;20026;-85
2022/05/15 06:21:36;;;;;;;1.80;1.58;;;;;;;20.37;46.79;93754.19;4989720;28;20046;-84
2022/05/15 06:24:02;;;;;;;1.60;1.50;;;;;;;20.39;46.82;93748.94;5005269;28;20034;-85
2022/05/15 06:26:27;;;;;;;2.22;1.77;;;;;;;20.38;46.74;93754.94;5005851;28;20045;-84
2022/05/15 06:28:53;;;;;;;1.95;1.77;;;;;;;20.39;46.67;93753.66;4990663;28;20040;-84
2022/05/15 06:31:18;;;;;;;2.72;1.60;;;;;;;20.43;46.72;93751.38;4972802;28;20041;-84
2022/05/15 06:33:44;;;;;;;1.73;1.50;;;;;;;20.44;46.73;93756.38;4980129;28;20041;-84
2022/05/15 06:36:09;;;;;;;1.70;1.60;;;;;;;20.44;46.60;93756.38;4989391;28;20092;-84
2022/05/15 06:38:35;;;;;;;2.58;1.70;;;;;;;20.45;46.63;93755.09;5005847;28;20468;-85
2022/05/15 06:41:00;;;;;;;1.67;1.55;;;;;;;20.44;46.70;93752.88;4963406;28;20033;-84
2022/05/15 06:43:26;;;;;;;2.45;1.83;;;;;;;20.46;46.57;93756.59;5009288;28;20045;-85
2022/05/15 06:45:51;;;;;;;2.03;1.42;;;;;;;20.46;46.64;93761.34;5004745;28;20056;-84
2022/05/15 06:48:17;;;;;;;2.05;1.40;;;;;;;20.47;46.50;93758.09;4989070;28;20089;-85
2022/05/15 06:50:42;;;;;;;1.60;1.42;;;;;;;20.47;46.71;93758.09;5005668;28;20393;-84
2022/05/15 06:53:13;;;;;;;1.30;1.20;;;;;;;20.49;46.55;93758.31;5005235;28;20042;-85
2022/05/15 06:57:28;;;;;;;1.67;1.17;;;;;;;20.50;46.55;93757.06;4972662;28;20038;-84
2022/05/15 06:58:24;;;;;;;3.05;1.65;;;;;;;20.50;46.57;93759.06;4991478;28;20802;-85
2022/05/15 07:00:49;;;;;;;2.03;1.80;;;;;;;20.51;46.72;93760.53;4989347;28;20467;-84
2022/05/15 07:03:15;;;;;;;2.63;1.80;;;;;;;20.52;46.44;93764.78;5003418;28;20038;-84
2022/05/15 07:05:40;;;;;;;2.00;1.60;;;;;;;20.52;46.70;93759.28;4963712;28;20444;-84
2022/05/15 07:08:08;;;;;;;1.83;1.40;;;;;;;20.50;46.64;93765.28;4973214;28;20150;-85
2022/05/15 07:10:34;;;;;;;1.70;1.30;;;;;;;20.52;46.51;93762.78;4969819;28;20072;-84
2022/05/15 07:12:59;;;;;;;1.90;1.70;;;;;;;20.54;46.65;93759.53;4988743;28;20504;-85
2022/05/15 07:15:25;;;;;;;1.92;1.70;;;;;;;20.55;46.36;93766.50;4991951;28;20103;-84
2022/05/15 07:17:50;;;;;;;2.95;1.85;;;;;;;20.53;46.63;93760.78;4989069;28;20026;-84
2022/05/15 07:20:15;;;;;;;2.60;1.73;;;;;;;20.56;46.62;93764.50;4988622;28;20060;-85
2022/05/15 07:22:41;;;;;;;1.95;1.77;;;;;;;20.53;46.65;93763.53;4988564;28;20038;-84
2022/05/15 07:25:06;;;;;;;2.30;1.90;;;;;;;20.55;46.67;93755.50;4972588;28;20393;-84
2022/05/15 07:27:32;;;;;;;1.42;1.33;;;;;;;20.53;46.94;93761.53;4983423;28;20519;-86
2022/05/15 07:29:57;;;;;;;2.22;1.63;;;;;;;20.56;46.62;93759.75;4972712;28;20064;-84
2022/05/15 07:32:23;;;;;;;1.88;1.70;;;;;;;20.55;46.71;93757.50;5006218;28;20100;-84
2022/05/15 07:34:48;;;;;;;6.70;1.90;;;;;;;20.56;46.70;93759.75;4988995;28;20060;-84
2022/05/15 07:37:13;;;;;;;2.08;1.88;;;;;;;20.57;46.51;93755.72;5005095;28;20037;-85
2022/05/15 07:39:39;;;;;;;2.97;1.58;;;;;;;20.57;46.70;93755.00;4989201;28;20053;-85
2022/05/15 07:42:05;;;;;;;1.83;1.65;;;;;;;20.55;46.76;93761.00;4996747;28;20061;-85
2022/05/15 07:44:30;;;;;;;1.83;1.52;;;;;;;20.55;46.83;93761.00;5008510;28;20041;-84
2022/05/15 07:46:56;;;;;;;1.80;1.70;;;;;;;20.56;46.77;93759.75;4993651;28;20061;-83
2022/05/15 07:49:21;;;;;;;2.55;2.28;;;;;;;20.58;46.60;93759.94;4972937;28;21089;-83
2022/05/15 07:51:47;;;;;;;1.88;1.70;;;;;;;20.57;46.92;93755.00;4981608;28;20432;-84
2022/05/15 07:54:15;;;;;;;2.00;1.80;;;;;;;20.56;46.75;93757.00;4962722;28;20440;-84
2022/05/15 07:56:41;;;;;;;2.05;1.85;;;;;;;20.58;46.79;93753.72;4988295;28;20037;-84
2022/05/15 07:59:07;;;;;;;2.35;1.80;;;;;;;20.58;46.88;93751.72;4988374;28;20469;-84
2022/05/15 08:01:32;;;;;;;1.88;1.77;;;;;;;20.56;46.74;93742.53;4988243;28;20109;-84
2022/05/15 08:03:57;;;;;;;1.60;1.50;;;;;;;20.57;46.74;93744.72;4988428;28;20038;-84
2022/05/15 08:09:07;;;;;;;2.35;1.70;;;;;;;20.58;46.75;93740.72;4994818;28;20050;-84
2022/05/15 08:11:33;;;;;;;1.65;1.48;;;;;;;20.57;46.82;93758.47;5006004;28;20042;-84
2022/05/15 08:14:02;;;;;;;2.05;1.85;;;;;;;20.59;46.92;93755.19;4995631;28;20045;-84
2022/05/15 08:16:28;;;;;;;2.45;1.90;;;;;;;20.58;46.82;93750.97;4993227;28;20243;-84
2022/05/15 08:24:22;;;;;;;2.33;1.90;;;;;;;20.56;46.89;93743.28;4987436;28;25588;-86
2022/05/15 08:26:48;;;;;;;1.73;1.63;;;;;;;20.57;46.81;93746.75;5007615;28;20528;-84
2022/05/15 08:29:14;;;;;;;1.92;1.73;;;;;;;20.56;46.86;93743.28;4975470;28;20254;-85
2022/05/15 08:31:40;;;;;;;2.00;1.80;;;;;;;20.59;46.99;93741.47;4992324;28;20041;-84
2022/05/15 08:34:06;;;;;;;2.05;1.88;;;;;;;20.56;46.88;93743.28;4991853;28;20509;-84
2022/05/15 08:36:32;;;;;;;3.08;1.80;;;;;;;20.58;46.63;93745.47;4991584;28;20084;-84
2022/05/15 08:38:57;;;;;;;2.03;1.75;;;;;;;20.58;46.99;93748.22;5007629;28;20062;-84
2022/05/15 08:41:33;;;;;;;2.15;1.90;;;;;;;20.55;47.08;93747.28;4969700;28;20034;-84
2022/05/15 08:43:58;;;;;;;2.15;1.88;;;;;;;20.58;46.67;93757.19;5029489;28;20116;-84
2022/05/15 08:46:46;;;;;;;2.17;1.98;;;;;;;20.56;47.15;93751.50;5028630;28;20128;-84
2022/05/15 08:49:24;;;;;;;2.92;1.83;;;;;;;20.55;47.16;93750.03;4996024;28;20405;-84
2022/05/15 08:52:02;;;;;;;2.40;2.20;;;;;;;20.55;46.95;93741.78;4975727;28;20049;-85
2022/05/15 08:54:28;;;;;;;2.10;1.65;;;;;;;20.56;47.11;93748.03;4991244;28;20099;-84
2022/05/15 08:56:53;;;;;;;2.72;2.17;;;;;;;20.57;46.99;93750.22;4991150;28;20053;-86
2022/05/15 08:59:27;;;;;;;3.17;2.03;;;;;;;20.55;47.21;93749.28;4991132;28;20060;-84
2022/05/15 09:01:54;;;;;;;2.40;2.20;;;;;;;20.56;46.83;93750.75;4975226;28;20034;-84
2022/05/15 09:04:20;;;;;;;2.47;2.25;;;;;;;20.57;47.09;93744.00;4991541;28;20104;-84
2022/05/15 09:06:50;;;;;;;2.17;1.98;;;;;;;20.55;47.41;93743.78;4990509;28;20085;-84
2022/05/15 09:09:30;;;;;;;1.90;1.70;;;;;;;20.54;47.13;93745.78;5007327;28;20132;-84
2022/05/15 09:11:56;;;;;;;1.98;1.80;;;;;;;20.55;47.07;93743.78;4994847;28;20026;-83
2022/05/15 09:14:41;;;;;;;1.85;1.63;;;;;;;20.54;47.17;93745.78;5007226;28;20038;-84
2022/05/15 09:17:24;;;;;;;2.10;1.90;;;;;;;20.53;47.28;93744.28;5005872;28;20048;-84
2022/05/15 09:19:52;;;;;;;2.40;1.95;;;;;;;20.55;47.40;93746.53;4991877;28;20508;-84
2022/05/15 09:22:18;;;;;;;2.45;2.00;;;;;;;20.54;47.16;93737.53;4990877;28;20030;-84
2022/05/15 09:24:47;;;;;;;2.92;2.10;;;;;;;20.56;47.14;93739.78;4990930;28;20034;-84
2022/05/15 09:27:21;;;;;;;1.90;1.73;;;;;;;20.53;47.21;93736.06;4991048;28;20034;-85
2022/05/15 09:29:54;;;;;;;1.92;1.70;;;;;;;20.53;47.06;93734.06;4974835;28;20030;-85
2022/05/15 09:32:38;;;;;;;2.28;1.90;;;;;;;20.52;47.20;93742.81;4973681;28;20038;-84
2022/05/15 09:35:05;;;;;;;1.88;1.77;;;;;;;20.54;47.25;93740.28;5006798;28;20049;-85
2022/05/15 09:40:22;;;;;;;1.80;1.70;;;;;;;20.55;47.20;93741.03;4994127;28;20072;-85
2022/05/15 09:45:53;;;;;;;1.90;1.70;;;;;;;20.53;47.29;93736.06;5013328;28;20185;-85
2022/05/15 09:48:21;;;;;;;2.22;2.00;;;;;;;20.53;47.29;93733.31;4991660;28;20512;-87
2022/05/15 09:50:47;;;;;;;2.20;1.85;;;;;;;20.53;47.35;93728.56;4974959;28;20420;-84
2022/05/15 09:53:36;;;;;;;2.08;1.88;;;;;;;20.52;47.33;93732.56;5007279;28;20574;-84
2022/05/15 09:56:05;;;;;;;1.90;1.70;;;;;;;20.54;47.36;93737.53;4975246;28;20064;-84
2022/05/15 09:58:41;;;;;;;2.10;1.90;;;;;;;20.53;47.26;93734.06;5006833;28;20338;-85
2022/05/15 10:01:26;;;;;;;2.05;1.85;;;;;;;20.53;47.31;93731.31;5006885;28;20068;-84
2022/05/15 10:03:54;;;;;;;1.90;1.63;;;;;;;20.53;47.46;93730.56;4986049;28;20467;-84
2022/05/15 10:06:22;;;;;;;3.30;2.42;;;;;;;20.51;47.48;93739.31;5009452;28;20029;-85
2022/05/15 10:09:21;;;;;;;2.33;2.13;;;;;;;20.51;47.49;93733.09;4977267;28;20069;-84
2022/05/15 10:11:47;;;;;;;2.50;2.20;;;;;;;20.53;47.52;93734.06;5001400;28;20130;-85
2022/05/15 10:14:20;;;;;;;2.15;1.90;;;;;;;20.53;47.36;93738.81;5002396;28;20069;-84
2022/05/15 10:16:48;;;;;;;2.33;2.00;;;;;;;20.53;47.35;93733.31;5001507;28;20061;-85
2022/05/15 10:19:32;;;;;;;2.03;1.77;;;;;;;20.50;47.55;93731.59;4988598;28;20435;-84
2022/05/15 10:22:13;;;;;;;2.22;1.90;;;;;;;20.51;47.48;93735.84;5010806;28;20033;-84
2022/05/15 10:24:41;;;;;;;3.17;1.70;;;;;;;20.51;47.37;93733.81;5009919;28;20044;-84
2022/05/15 10:27:27;;;;;;;2.75;1.95;;;;;;;20.49;47.32;93733.59;4992847;28;20631;-86
2022/05/15 10:30:12;;;;;;;2.42;2.20;;;;;;;20.50;47.66;93726.09;4992564;28;20459;-84
2022/05/15 10:32:42;;;;;;;3.05;1.90;;;;;;;20.51;47.36;93722.84;4976911;28;20045;-85
2022/05/15 10:35:11;;;;;;;2.45;2.05;;;;;;;20.52;47.45;93712.59;5008380;28;20037;-84
2022/05/15 10:37:55;;;;;;;1.60;1.50;;;;;;;20.52;47.40;93716.09;4993168;28;20034;-84
2022/05/15 10:40:36;;;;;;;3.10;2.10;;;;;;;20.49;47.51;93719.88;5008108;28;20044;-85
2022/05/15 10:43:28;;;;;;;3.38;1.65;;;;;;;20.51;47.58;93717.34;5016381;28;20076;-84
2022/05/15 10:46:19;;;;;;;1.60;1.50;;;;;;;20.49;47.63;93714.38;4992778;28;20435;-84
2022/05/15 10:48:45;;;;;;;;;;;;;;;20.50;47.56;93717.88;4967912;28;20048;-84
2022/05/15 10:51:21;;;;;;;1.52;1.42;;;;;;;20.51;47.33;93722.09;5008414;28;19925;-84
2022/05/15 10:59:51;;;;;;;2.28;2.00;;;;;;;20.51;47.42;93708.38;5010536;28;20052;-84
2022/05/15 11:02:25;;;;;;;1.70;1.52;;;;;;;20.48;47.51;93712.88;4992184;28;20041;-85
2022/05/15 11:05:01;;;;;;;2.15;1.85;;;;;;;20.49;47.62;93702.66;5018964;28;20500;-85
2022/05/15 11:07:32;;;;;;;3.08;1.85;;;;;;;20.51;47.54;93713.84;4976502;28;20041;-85
2022/05/15 11:10:18;;;;;;;1.70;1.60;;;;;;;20.48;47.70;93703.91;5008738;28;20041;-84
2022/05/15 11:13:05;;;;;;;2.50;2.10;;;;;;;20.51;47.20;93708.38;5015836;28;20045;-84
2022/05/15 11:15:49;;;;;;;1.98;1.77;;;;;;;20.49;47.66;93708.88;5028917;28;20380;-84
2022/05/15 11:18:36;;;;;;;2.55;1.63;;;;;;;20.48;47.71;93701.16;5005574;28;20041;-86
2022/05/15 11:21:05;;;;;;;2.05;1.85;;;;;;;20.50;47.50;93696.63;4993738;28;20171;-84
2022/05/15 11:23:43;;;;;;;1.48;1.35;;;;;;;20.49;47.53;93694.41;4976556;28;20041;-84
2022/05/15 11:26:28;;;;;;;2.03;1.90;;;;;;;20.49;47.46;93689.66;4976038;28;20038;-84
2022/05/15 11:28:56;;;;;;;2.53;1.67;;;;;;;20.51;47.36;93684.41;4991931;28;20045;-84
2022/05/15 11:31:22;;;;;;;2.30;1.67;;;;;;;20.50;47.47;93693.16;4975543;28;20466;-84
2022/05/15 11:33:54;;;;;;;2.13;1.90;;;;;;;20.50;47.61;93680.16;4975829;28;20034;-84
2022/05/15 11:36:22;;;;;;;2.20;1.75;;;;;;;20.51;47.58;93678.91;4988886;28;20034;-85
2022/05/15 11:38:53;;;;;;;1.75;1.65;;;;;;;20.51;47.59;93686.41;5007001;28;20049;-85
2022/05/15 11:41:34;;;;;;;1.95;1.70;;;;;;;20.49;47.61;93686.16;5000004;28;20068;-84
2022/05/15 11:44:14;;;;;;;2.03;1.70;;;;;;;20.51;47.65;93680.91;5049977;28;20047;-84
2022/05/15 11:46:45;;;;;;;1.73;1.63;;;;;;;20.50;47.50;93674.66;5017572;28;20045;-84
2022/05/15 11:49:26;;;;;;;3.35;1.65;;;;;;;20.52;47.59;93676.91;5027250;28;20038;-84
2022/05/15 11:52:03;;;;;;;3.08;1.60;;;;;;;20.50;47.58;93668.44;4995650;28;20127;-84
2022/05/15 11:54:34;;;;;;;1.75;1.60;;;;;;;20.49;47.62;93662.19;5028770;28;20335;-84
2022/05/15 11:56:59;;;;;;;2.92;1.63;;;;;;;20.51;47.49;93658.94;4979853;28;20046;-84
2022/05/15 11:59:29;;;;;;;2.20;1.88;;;;;;;20.50;47.55;93662.94;4958832;28;20298;-85
2022/05/15 12:01:58;;;;;;;2.17;1.98;;;;;;;20.52;47.68;93654.94;4975893;28;20046;-85